sensor_id;sensor_type;location;lat;lon;timestamp;temperature;humidity
39825;DHT22;25503;52.532;13.640;2023-02-24T00:01:33;7.20;99.90
39825;DHT22;25503;52.532;13.640;2023-02-24T00:04:04;7.20;99.90
39825;DHT22;25503;52.532;13.640;2023-02-24T00:06:34;7.20;99.90
39825;DHT22;25503;52.532;13.640;2023-02-24T00:09:16;7.20;99.90
39825;DHT22;25503;52.532;13.640;2023-02-24T00:11:48;7.20;99.90
39825;DHT22;25503;52.532;13.640;2023-02-24T00:14:16;7.20;99.90
39825;DHT22;25503;52.532;13.640;2023-02-24T00:16:43;7.20;99.90
39825;DHT22;25503;52.532;13.640;2023-02-24T00:19:12;7.20;99.90
39825;DHT22;25503;52.532;13.640;2023-02-24T00:21:38;7.20;99.90
39825;DHT22;25503;52.532;13.640;2023-02-24T00:24:04;7.10;99.90
39825;DHT22;25503;52.532;13.640;2023-02-24T00:26:30;7.20;99.90
39825;DHT22;25503;52.532;13.640;2023-02-24T00:28:57;7.20;99.90
39825;DHT22;25503;52.532;13.640;2023-02-24T00:31:25;7.10;99.90
39825;DHT22;25503;52.532;13.640;2023-02-24T00:33:54;7.10;99.90
39825;DHT22;25503;52.532;13.640;2023-02-24T00:36:21;7.10;99.90
39825;DHT22;25503;52.532;13.640;2023-02-24T00:39:08;7.10;99.90
39825;DHT22;25503;52.532;13.640;2023-02-24T00:41:36;7.10;99.90
39825;DHT22;25503;52.532;13.640;2023-02-24T00:44:04;7.10;99.90
39825;DHT22;25503;52.532;13.640;2023-02-24T00:46:42;7.10;99.90
39825;DHT22;25503;52.532;13.640;2023-02-24T00:49:12;7.10;99.90
39825;DHT22;25503;52.532;13.640;2023-02-24T00:51:43;7.10;99.90
39825;DHT22;25503;52.532;13.640;2023-02-24T00:54:09;7.10;99.90
39825;DHT22;25503;52.532;13.640;2023-02-24T00:56:44;7.10;99.90
39825;DHT22;25503;52.532;13.640;2023-02-24T00:59:11;7.00;99.90
39825;DHT22;25503;52.532;13.640;2023-02-24T01:01:38;7.10;99.90
39825;DHT22;25503;52.532;13.640;2023-02-24T01:04:05;7.00;99.90
39825;DHT22;25503;52.532;13.640;2023-02-24T01:06:40;7.00;99.90
39825;DHT22;25503;52.532;13.640;2023-02-24T01:09:12;7.00;99.90
39825;DHT22;25503;52.532;13.640;2023-02-24T01:11:40;7.00;99.90
39825;DHT22;25503;52.532;13.640;2023-02-24T01:14:28;7.00;99.90
39825;DHT22;25503;52.532;13.640;2023-02-24T01:16:54;7.00;99.90
39825;DHT22;25503;52.532;13.640;2023-02-24T01:19:23;7.00;99.90
39825;DHT22;25503;52.532;13.640;2023-02-24T01:21:50;6.90;99.90
39825;DHT22;25503;52.532;13.640;2023-02-24T01:24:40;6.90;99.90
39825;DHT22;25503;52.532;13.640;2023-02-24T01:27:09;6.90;99.90
39825;DHT22;25503;52.532;13.640;2023-02-24T01:29:35;6.80;99.90
39825;DHT22;25503;52.532;13.640;2023-02-24T01:32:12;6.80;99.90
39825;DHT22;25503;52.532;13.640;2023-02-24T01:34:37;6.80;99.90
39825;DHT22;25503;52.532;13.640;2023-02-24T01:37:03;6.70;99.90
39825;DHT22;25503;52.532;13.640;2023-02-24T01:39:29;6.70;99.90
39825;DHT22;25503;52.532;13.640;2023-02-24T01:41:55;6.60;99.90
39825;DHT22;25503;52.532;13.640;2023-02-24T01:46:52;6.40;99.90
39825;DHT22;25503;52.532;13.640;2023-02-24T01:49:35;6.40;99.90
39825;DHT22;25503;52.532;13.640;2023-02-24T01:52:15;6.30;99.90
39825;DHT22;25503;52.532;13.640;2023-02-24T01:54:44;6.20;99.90
39825;DHT22;25503;52.532;13.640;2023-02-24T01:57:13;6.10;99.90
39825;DHT22;25503;52.532;13.640;2023-02-24T01:59:42;6.00;99.90
39825;DHT22;25503;52.532;13.640;2023-02-24T02:02:08;5.90;99.90
39825;DHT22;25503;52.532;13.640;2023-02-24T02:04:47;5.80;99.90
39825;DHT22;25503;52.532;13.640;2023-02-24T02:07:16;5.80;99.90
39825;DHT22;25503;52.532;13.640;2023-02-24T02:09:43;5.70;99.90
39825;DHT22;25503;52.532;13.640;2023-02-24T02:12:10;5.60;99.90
39825;DHT22;25503;52.532;13.640;2023-02-24T02:14:40;5.50;99.90
39825;DHT22;25503;52.532;13.640;2023-02-24T02:17:15;5.40;99.90
39825;DHT22;25503;52.532;13.640;2023-02-24T02:25:19;5.20;99.90
39825;DHT22;25503;52.532;13.640;2023-02-24T02:33:17;4.90;99.90
39825;DHT22;25503;52.532;13.640;2023-02-24T02:42:05;4.60;99.90
39825;DHT22;25503;52.532;13.640;2023-02-24T02:44:57;4.60;99.90
39825;DHT22;25503;52.532;13.640;2023-02-24T02:53:02;4.50;99.90
39825;DHT22;25503;52.532;13.640;2023-02-24T02:55:39;4.40;99.90
39825;DHT22;25503;52.532;13.640;2023-02-24T02:58:11;4.40;99.90
39825;DHT22;25503;52.532;13.640;2023-02-24T03:00:43;4.40;99.90
39825;DHT22;25503;52.532;13.640;2023-02-24T03:03:23;4.30;99.90
39825;DHT22;25503;52.532;13.640;2023-02-24T03:05:58;4.30;99.90
39825;DHT22;25503;52.532;13.640;2023-02-24T03:08:28;4.30;99.90
39825;DHT22;25503;52.532;13.640;2023-02-24T03:10:57;4.30;99.90
39825;DHT22;25503;52.532;13.640;2023-02-24T03:13:27;4.20;99.90
39825;DHT22;25503;52.532;13.640;2023-02-24T03:15:59;4.20;99.90
39825;DHT22;25503;52.532;13.640;2023-02-24T03:18:31;4.20;99.90
39825;DHT22;25503;52.532;13.640;2023-02-24T03:21:06;4.20;99.90
39825;DHT22;25503;52.532;13.640;2023-02-24T03:23:36;4.10;99.90
39825;DHT22;25503;52.532;13.640;2023-02-24T03:26:42;4.10;99.90
39825;DHT22;25503;52.532;13.640;2023-02-24T03:29:34;4.10;99.90
39825;DHT22;25503;52.532;13.640;2023-02-24T03:37:19;4.00;99.90
39825;DHT22;25503;52.532;13.640;2023-02-24T03:39:56;4.00;99.90
39825;DHT22;25503;52.532;13.640;2023-02-24T03:42:22;4.00;99.90
39825;DHT22;25503;52.532;13.640;2023-02-24T03:44:50;3.90;99.90
39825;DHT22;25503;52.532;13.640;2023-02-24T03:47:16;3.90;99.90
39825;DHT22;25503;52.532;13.640;2023-02-24T03:49:45;3.90;99.90
39825;DHT22;25503;52.532;13.640;2023-02-24T04:04:37;3.80;99.90
39825;DHT22;25503;52.532;13.640;2023-02-24T04:10:04;3.90;99.90
39825;DHT22;25503;52.532;13.640;2023-02-24T04:12:49;3.80;99.90
39825;DHT22;25503;52.532;13.640;2023-02-24T04:15:31;3.80;99.90
39825;DHT22;25503;52.532;13.640;2023-02-24T04:18:02;3.80;99.90
39825;DHT22;25503;52.532;13.640;2023-02-24T04:20:33;3.80;99.90
39825;DHT22;25503;52.532;13.640;2023-02-24T04:23:11;3.80;99.90
39825;DHT22;25503;52.532;13.640;2023-02-24T04:25:41;3.80;99.90
39825;DHT22;25503;52.532;13.640;2023-02-24T04:28:09;3.80;99.90
39825;DHT22;25503;52.532;13.640;2023-02-24T04:30:39;3.80;99.90
39825;DHT22;25503;52.532;13.640;2023-02-24T04:33:06;3.80;99.90
39825;DHT22;25503;52.532;13.640;2023-02-24T04:35:32;3.80;99.90
39825;DHT22;25503;52.532;13.640;2023-02-24T04:37:58;3.80;99.90
39825;DHT22;25503;52.532;13.640;2023-02-24T04:40:25;3.80;99.90
39825;DHT22;25503;52.532;13.640;2023-02-24T04:42:52;3.80;99.90
39825;DHT22;25503;52.532;13.640;2023-02-24T04:47:50;3.80;99.90
39825;DHT22;25503;52.532;13.640;2023-02-24T04:50:21;3.80;99.90
39825;DHT22;25503;52.532;13.640;2023-02-24T04:52:52;3.80;99.90
39825;DHT22;25503;52.532;13.640;2023-02-24T04:55:20;3.80;99.90
39825;DHT22;25503;52.532;13.640;2023-02-24T04:57:48;3.80;99.90
39825;DHT22;25503;52.532;13.640;2023-02-24T05:00:14;3.80;99.90
39825;DHT22;25503;52.532;13.640;2023-02-24T05:02:48;3.80;99.90
39825;DHT22;25503;52.532;13.640;2023-02-24T05:05:17;3.80;99.90
39825;DHT22;25503;52.532;13.640;2023-02-24T05:08:06;3.80;99.90
39825;DHT22;25503;52.532;13.640;2023-02-24T05:10:42;3.80;99.90
39825;DHT22;25503;52.532;13.640;2023-02-24T05:13:22;3.80;99.90
39825;DHT22;25503;52.532;13.640;2023-02-24T05:15:55;3.80;99.90
39825;DHT22;25503;52.532;13.640;2023-02-24T05:18:21;3.80;99.90
39825;DHT22;25503;52.532;13.640;2023-02-24T05:20:55;3.80;99.90
39825;DHT22;25503;52.532;13.640;2023-02-24T05:23:41;3.80;99.90
39825;DHT22;25503;52.532;13.640;2023-02-24T05:26:16;3.80;99.90
39825;DHT22;25503;52.532;13.640;2023-02-24T05:28:44;3.80;99.90
39825;DHT22;25503;52.532;13.640;2023-02-24T05:31:15;3.80;99.90
39825;DHT22;25503;52.532;13.640;2023-02-24T05:33:43;3.80;99.90
39825;DHT22;25503;52.532;13.640;2023-02-24T05:36:15;3.80;99.90
39825;DHT22;25503;52.532;13.640;2023-02-24T05:38:49;3.80;99.90
39825;DHT22;25503;52.532;13.640;2023-02-24T05:41:20;3.80;99.90
39825;DHT22;25503;52.532;13.640;2023-02-24T05:43:53;3.80;99.90
39825;DHT22;25503;52.532;13.640;2023-02-24T05:46:23;3.80;99.90
39825;DHT22;25503;52.532;13.640;2023-02-24T05:48:56;3.80;99.90
39825;DHT22;25503;52.532;13.640;2023-02-24T05:51:27;3.80;99.90
39825;DHT22;25503;52.532;13.640;2023-02-24T05:54:07;3.80;99.90
39825;DHT22;25503;52.532;13.640;2023-02-24T05:56:36;3.80;99.90
39825;DHT22;25503;52.532;13.640;2023-02-24T05:59:05;3.80;99.90
39825;DHT22;25503;52.532;13.640;2023-02-24T06:01:38;3.80;99.90
39825;DHT22;25503;52.532;13.640;2023-02-24T06:04:10;3.80;99.90
39825;DHT22;25503;52.532;13.640;2023-02-24T06:06:46;3.80;99.90
39825;DHT22;25503;52.532;13.640;2023-02-24T06:09:22;3.80;99.90
39825;DHT22;25503;52.532;13.640;2023-02-24T06:11:48;3.80;99.90
39825;DHT22;25503;52.532;13.640;2023-02-24T06:14:14;3.80;99.90
39825;DHT22;25503;52.532;13.640;2023-02-24T06:16:41;3.80;99.90
39825;DHT22;25503;52.532;13.640;2023-02-24T06:19:09;3.80;99.90
39825;DHT22;25503;52.532;13.640;2023-02-24T06:21:38;3.80;99.90
39825;DHT22;25503;52.532;13.640;2023-02-24T06:24:09;3.80;99.90
39825;DHT22;25503;52.532;13.640;2023-02-24T06:26:35;3.80;99.90
39825;DHT22;25503;52.532;13.640;2023-02-24T06:29:13;3.80;99.90
39825;DHT22;25503;52.532;13.640;2023-02-24T06:31:40;3.80;99.90
39825;DHT22;25503;52.532;13.640;2023-02-24T06:34:06;3.90;99.90
39825;DHT22;25503;52.532;13.640;2023-02-24T06:36:35;3.90;99.90
39825;DHT22;25503;52.532;13.640;2023-02-24T06:39:01;3.80;99.90
39825;DHT22;25503;52.532;13.640;2023-02-24T06:41:26;3.90;99.90
39825;DHT22;25503;52.532;13.640;2023-02-24T06:43:53;3.90;99.90
39825;DHT22;25503;52.532;13.640;2023-02-24T06:46:19;3.90;99.90
39825;DHT22;25503;52.532;13.640;2023-02-24T06:48:45;3.90;99.90
39825;DHT22;25503;52.532;13.640;2023-02-24T06:51:14;3.90;99.90
39825;DHT22;25503;52.532;13.640;2023-02-24T06:53:43;3.90;99.90
39825;DHT22;25503;52.532;13.640;2023-02-24T06:56:09;4.00;99.90
39825;DHT22;25503;52.532;13.640;2023-02-24T06:58:47;3.90;99.90
39825;DHT22;25503;52.532;13.640;2023-02-24T07:01:20;3.90;99.90
39825;DHT22;25503;52.532;13.640;2023-02-24T07:03:53;3.90;99.90
39825;DHT22;25503;52.532;13.640;2023-02-24T07:06:24;3.90;99.90
39825;DHT22;25503;52.532;13.640;2023-02-24T07:08:51;3.90;99.90
39825;DHT22;25503;52.532;13.640;2023-02-24T07:11:17;4.00;99.90
39825;DHT22;25503;52.532;13.640;2023-02-24T07:13:45;4.00;99.90
39825;DHT22;25503;52.532;13.640;2023-02-24T07:16:13;4.00;99.90
39825;DHT22;25503;52.532;13.640;2023-02-24T07:18:41;4.00;99.90
39825;DHT22;25503;52.532;13.640;2023-02-24T07:21:09;4.00;99.90
39825;DHT22;25503;52.532;13.640;2023-02-24T07:23:39;4.00;99.90
39825;DHT22;25503;52.532;13.640;2023-02-24T07:26:25;4.10;99.90
39825;DHT22;25503;52.532;13.640;2023-02-24T07:28:52;4.10;99.90
39825;DHT22;25503;52.532;13.640;2023-02-24T07:31:23;4.10;99.90
39825;DHT22;25503;52.532;13.640;2023-02-24T07:33:54;4.10;99.90
39825;DHT22;25503;52.532;13.640;2023-02-24T07:36:22;4.10;99.90
39825;DHT22;25503;52.532;13.640;2023-02-24T07:38:51;4.10;99.90
39825;DHT22;25503;52.532;13.640;2023-02-24T07:41:19;4.10;99.90
39825;DHT22;25503;52.532;13.640;2023-02-24T07:43:49;4.10;99.90
39825;DHT22;25503;52.532;13.640;2023-02-24T07:46:18;4.10;99.90
39825;DHT22;25503;52.532;13.640;2023-02-24T07:48:44;4.10;99.90
39825;DHT22;25503;52.532;13.640;2023-02-24T07:51:16;4.10;99.90
39825;DHT22;25503;52.532;13.640;2023-02-24T07:53:42;4.10;99.90
39825;DHT22;25503;52.532;13.640;2023-02-24T07:56:10;4.10;99.90
39825;DHT22;25503;52.532;13.640;2023-02-24T07:58:42;4.00;99.90
39825;DHT22;25503;52.532;13.640;2023-02-24T08:01:10;4.10;99.90
39825;DHT22;25503;52.532;13.640;2023-02-24T08:03:53;4.10;99.90
39825;DHT22;25503;52.532;13.640;2023-02-24T08:06:24;4.10;99.90
39825;DHT22;25503;52.532;13.640;2023-02-24T08:09:06;4.10;99.90
39825;DHT22;25503;52.532;13.640;2023-02-24T08:11:49;4.10;99.90
39825;DHT22;25503;52.532;13.640;2023-02-24T08:14:23;4.10;99.90
39825;DHT22;25503;52.532;13.640;2023-02-24T08:16:53;4.10;99.90
39825;DHT22;25503;52.532;13.640;2023-02-24T08:19:26;4.10;99.90
39825;DHT22;25503;52.532;13.640;2023-02-24T08:21:58;4.10;99.90
39825;DHT22;25503;52.532;13.640;2023-02-24T08:24:47;4.10;99.90
39825;DHT22;25503;52.532;13.640;2023-02-24T08:27:18;4.10;99.90
39825;DHT22;25503;52.532;13.640;2023-02-24T08:29:50;4.10;99.90
39825;DHT22;25503;52.532;13.640;2023-02-24T08:32:33;4.20;99.90
39825;DHT22;25503;52.532;13.640;2023-02-24T08:35:12;4.20;99.90
39825;DHT22;25503;52.532;13.640;2023-02-24T08:37:43;4.20;99.90
39825;DHT22;25503;52.532;13.640;2023-02-24T08:40:16;4.20;99.90
39825;DHT22;25503;52.532;13.640;2023-02-24T08:43:02;4.30;99.90
39825;DHT22;25503;52.532;13.640;2023-02-24T08:45:45;4.30;99.90
39825;DHT22;25503;52.532;13.640;2023-02-24T08:48:14;4.30;99.90
39825;DHT22;25503;52.532;13.640;2023-02-24T08:50:54;4.30;99.90
39825;DHT22;25503;52.532;13.640;2023-02-24T08:53:21;4.40;99.90
39825;DHT22;25503;52.532;13.640;2023-02-24T08:55:48;4.40;99.90
39825;DHT22;25503;52.532;13.640;2023-02-24T08:58:17;4.50;99.90
39825;DHT22;25503;52.532;13.640;2023-02-24T09:00:44;4.50;99.90
39825;DHT22;25503;52.532;13.640;2023-02-24T09:03:15;4.60;99.90
39825;DHT22;25503;52.532;13.640;2023-02-24T09:06:04;4.70;99.90
39825;DHT22;25503;52.532;13.640;2023-02-24T09:08:36;4.70;99.90
39825;DHT22;25503;52.532;13.640;2023-02-24T09:11:07;4.80;99.90
39825;DHT22;25503;52.532;13.640;2023-02-24T09:13:37;4.80;99.90
39825;DHT22;25503;52.532;13.640;2023-02-24T09:16:19;4.80;99.90
39825;DHT22;25503;52.532;13.640;2023-02-24T09:18:48;4.90;99.90
39825;DHT22;25503;52.532;13.640;2023-02-24T09:21:34;4.90;99.90
39825;DHT22;25503;52.532;13.640;2023-02-24T09:24:20;4.90;99.90
39825;DHT22;25503;52.532;13.640;2023-02-24T09:26:55;5.00;99.90
39825;DHT22;25503;52.532;13.640;2023-02-24T09:29:25;5.00;99.90
39825;DHT22;25503;52.532;13.640;2023-02-24T09:32:14;5.00;99.90
39825;DHT22;25503;52.532;13.640;2023-02-24T09:34:41;5.00;99.90
39825;DHT22;25503;52.532;13.640;2023-02-24T09:37:11;5.00;99.90
39825;DHT22;25503;52.532;13.640;2023-02-24T09:39:53;5.00;99.90
39825;DHT22;25503;52.532;13.640;2023-02-24T09:42:24;5.00;99.90
39825;DHT22;25503;52.532;13.640;2023-02-24T09:44:55;5.00;99.90
39825;DHT22;25503;52.532;13.640;2023-02-24T09:47:45;5.00;99.90
39825;DHT22;25503;52.532;13.640;2023-02-24T09:52:49;4.90;99.90
39825;DHT22;25503;52.532;13.640;2023-02-24T09:55:22;5.00;99.90
39825;DHT22;25503;52.532;13.640;2023-02-24T10:06:45;5.00;99.90
39825;DHT22;25503;52.532;13.640;2023-02-24T10:09:22;5.10;99.90
39825;DHT22;25503;52.532;13.640;2023-02-24T10:11:54;5.10;99.90
39825;DHT22;25503;52.532;13.640;2023-02-24T10:14:53;5.10;99.90
39825;DHT22;25503;52.532;13.640;2023-02-24T10:17:40;5.20;99.90
39825;DHT22;25503;52.532;13.640;2023-02-24T10:20:16;5.20;99.90
39825;DHT22;25503;52.532;13.640;2023-02-24T10:26:16;5.20;99.90
39825;DHT22;25503;52.532;13.640;2023-02-24T10:31:50;5.30;99.90
39825;DHT22;25503;52.532;13.640;2023-02-24T10:34:25;5.30;99.90
39825;DHT22;25503;52.532;13.640;2023-02-24T10:37:10;5.30;99.90
39825;DHT22;25503;52.532;13.640;2023-02-24T10:39:36;5.30;99.90
39825;DHT22;25503;52.532;13.640;2023-02-24T10:42:06;5.30;99.90
39825;DHT22;25503;52.532;13.640;2023-02-24T10:44:47;5.40;99.90
39825;DHT22;25503;52.532;13.640;2023-02-24T10:47:28;5.40;99.90
39825;DHT22;25503;52.532;13.640;2023-02-24T10:49:59;5.50;99.90
39825;DHT22;25503;52.532;13.640;2023-02-24T10:52:29;5.50;99.90
39825;DHT22;25503;52.532;13.640;2023-02-24T10:55:41;5.50;99.90
39825;DHT22;25503;52.532;13.640;2023-02-24T11:00:55;5.60;99.90
39825;DHT22;25503;52.532;13.640;2023-02-24T11:03:51;5.60;99.90
39825;DHT22;25503;52.532;13.640;2023-02-24T11:06:30;5.60;99.90
39825;DHT22;25503;52.532;13.640;2023-02-24T11:09:15;5.60;99.90
39825;DHT22;25503;52.532;13.640;2023-02-24T11:12:05;5.60;99.90
39825;DHT22;25503;52.532;13.640;2023-02-24T11:14:56;5.50;99.90
39825;DHT22;25503;52.532;13.640;2023-02-24T11:17:47;5.50;99.90
39825;DHT22;25503;52.532;13.640;2023-02-24T11:20:23;5.40;99.90
39825;DHT22;25503;52.532;13.640;2023-02-24T11:22:51;5.30;99.90
39825;DHT22;25503;52.532;13.640;2023-02-24T11:25:33;5.20;99.90
39825;DHT22;25503;52.532;13.640;2023-02-24T11:28:01;5.10;99.90
39825;DHT22;25503;52.532;13.640;2023-02-24T11:30:49;5.00;99.90
39825;DHT22;25503;52.532;13.640;2023-02-24T11:33:35;4.90;99.90
39825;DHT22;25503;52.532;13.640;2023-02-24T11:41:26;4.60;99.90
39825;DHT22;25503;52.532;13.640;2023-02-24T11:44:12;4.50;99.90
39825;DHT22;25503;52.532;13.640;2023-02-24T11:46:53;4.50;99.90
39825;DHT22;25503;52.532;13.640;2023-02-24T11:49:37;4.40;99.90
39825;DHT22;25503;52.532;13.640;2023-02-24T11:52:13;4.30;99.90
39825;DHT22;25503;52.532;13.640;2023-02-24T11:54:45;4.30;99.90
39825;DHT22;25503;52.532;13.640;2023-02-24T11:57:19;4.20;99.90
39825;DHT22;25503;52.532;13.640;2023-02-24T12:02:50;4.10;99.90
39825;DHT22;25503;52.532;13.640;2023-02-24T12:05:32;4.00;99.90
39825;DHT22;25503;52.532;13.640;2023-02-24T12:08:25;3.90;99.90
39825;DHT22;25503;52.532;13.640;2023-02-24T12:11:05;3.90;99.90
39825;DHT22;25503;52.532;13.640;2023-02-24T12:16:42;3.80;99.90
39825;DHT22;25503;52.532;13.640;2023-02-24T12:19:17;3.90;99.90
39825;DHT22;25503;52.532;13.640;2023-02-24T12:21:50;3.80;99.90
39825;DHT22;25503;52.532;13.640;2023-02-24T12:24:17;3.80;99.90
39825;DHT22;25503;52.532;13.640;2023-02-24T12:29:52;3.60;99.90
39825;DHT22;25503;52.532;13.640;2023-02-24T12:35:14;3.50;99.90
39825;DHT22;25503;52.532;13.640;2023-02-24T12:38:06;3.50;99.90
39825;DHT22;25503;52.532;13.640;2023-02-24T12:43:34;3.50;99.90
39825;DHT22;25503;52.532;13.640;2023-02-24T12:48:51;3.50;99.90
39825;DHT22;25503;52.532;13.640;2023-02-24T12:51:38;3.40;99.90
39825;DHT22;25503;52.532;13.640;2023-02-24T12:54:11;3.40;99.90
39825;DHT22;25503;52.532;13.640;2023-02-24T12:56:46;3.40;99.90
39825;DHT22;25503;52.532;13.640;2023-02-24T12:59:16;3.30;99.90
39825;DHT22;25503;52.532;13.640;2023-02-24T13:02:12;3.30;99.90
39825;DHT22;25503;52.532;13.640;2023-02-24T13:12:56;3.20;99.90
39825;DHT22;25503;52.532;13.640;2023-02-24T13:15:26;3.20;99.90
39825;DHT22;25503;52.532;13.640;2023-02-24T13:17:55;3.20;99.90
39825;DHT22;25503;52.532;13.640;2023-02-24T13:20:34;3.30;99.90
39825;DHT22;25503;52.532;13.640;2023-02-24T13:23:03;3.20;99.90
39825;DHT22;25503;52.532;13.640;2023-02-24T13:25:49;3.30;99.90
39825;DHT22;25503;52.532;13.640;2023-02-24T13:28:30;3.30;99.90
39825;DHT22;25503;52.532;13.640;2023-02-24T13:31:06;3.20;99.90
39825;DHT22;25503;52.532;13.640;2023-02-24T13:33:37;3.20;99.90
39825;DHT22;25503;52.532;13.640;2023-02-24T13:36:23;3.20;99.90
39825;DHT22;25503;52.532;13.640;2023-02-24T13:39:17;3.20;99.90
39825;DHT22;25503;52.532;13.640;2023-02-24T13:41:44;3.20;99.90
39825;DHT22;25503;52.532;13.640;2023-02-24T13:44:21;3.20;99.90
39825;DHT22;25503;52.532;13.640;2023-02-24T13:52:38;3.10;99.90
39825;DHT22;25503;52.532;13.640;2023-02-24T14:01:06;3.00;99.90
39825;DHT22;25503;52.532;13.640;2023-02-24T14:03:33;3.00;99.90
39825;DHT22;25503;52.532;13.640;2023-02-24T14:06:00;3.00;99.90
39825;DHT22;25503;52.532;13.640;2023-02-24T14:08:42;3.00;99.90
39825;DHT22;25503;52.532;13.640;2023-02-24T14:11:12;3.00;99.90
39825;DHT22;25503;52.532;13.640;2023-02-24T14:13:40;3.00;99.90
39825;DHT22;25503;52.532;13.640;2023-02-24T14:16:09;3.00;99.90
39825;DHT22;25503;52.532;13.640;2023-02-24T14:18:35;3.00;99.90
39825;DHT22;25503;52.532;13.640;2023-02-24T14:21:02;3.00;99.90
39825;DHT22;25503;52.532;13.640;2023-02-24T14:23:33;3.00;99.90
39825;DHT22;25503;52.532;13.640;2023-02-24T14:26:07;3.00;99.90
39825;DHT22;25503;52.532;13.640;2023-02-24T14:28:38;3.00;99.90
39825;DHT22;25503;52.532;13.640;2023-02-24T14:31:12;3.00;99.90
39825;DHT22;25503;52.532;13.640;2023-02-24T14:33:40;3.00;99.90
39825;DHT22;25503;52.532;13.640;2023-02-24T14:36:13;3.00;99.90
39825;DHT22;25503;52.532;13.640;2023-02-24T14:38:42;3.00;99.90
39825;DHT22;25503;52.532;13.640;2023-02-24T14:41:35;3.00;99.90
39825;DHT22;25503;52.532;13.640;2023-02-24T14:44:16;3.10;99.90
39825;DHT22;25503;52.532;13.640;2023-02-24T14:46:50;3.10;99.90
39825;DHT22;25503;52.532;13.640;2023-02-24T14:49:19;3.10;99.90
39825;DHT22;25503;52.532;13.640;2023-02-24T14:51:46;3.10;99.90
39825;DHT22;25503;52.532;13.640;2023-02-24T14:54:19;3.10;99.90
39825;DHT22;25503;52.532;13.640;2023-02-24T14:56:46;3.10;99.90
39825;DHT22;25503;52.532;13.640;2023-02-24T14:59:25;3.10;99.90
39825;DHT22;25503;52.532;13.640;2023-02-24T15:01:55;3.10;99.90
39825;DHT22;25503;52.532;13.640;2023-02-24T15:06:53;3.10;99.90
39825;DHT22;25503;52.532;13.640;2023-02-24T15:09:21;3.10;99.90
39825;DHT22;25503;52.532;13.640;2023-02-24T15:11:49;3.10;99.90
39825;DHT22;25503;52.532;13.640;2023-02-24T15:14:24;3.10;99.90
39825;DHT22;25503;52.532;13.640;2023-02-24T15:16:55;3.10;99.90
39825;DHT22;25503;52.532;13.640;2023-02-24T15:19:29;3.10;99.90
39825;DHT22;25503;52.532;13.640;2023-02-24T15:21:56;3.20;99.90
39825;DHT22;25503;52.532;13.640;2023-02-24T15:24:28;3.20;99.90
39825;DHT22;25503;52.532;13.640;2023-02-24T15:27:25;3.20;99.90
39825;DHT22;25503;52.532;13.640;2023-02-24T15:30:01;3.20;99.90
39825;DHT22;25503;52.532;13.640;2023-02-24T15:32:30;3.20;99.90
39825;DHT22;25503;52.532;13.640;2023-02-24T15:34:56;3.10;99.90
39825;DHT22;25503;52.532;13.640;2023-02-24T15:37:27;3.10;99.90
39825;DHT22;25503;52.532;13.640;2023-02-24T15:40:02;3.20;99.90
39825;DHT22;25503;52.532;13.640;2023-02-24T15:42:34;3.20;99.90
39825;DHT22;25503;52.532;13.640;2023-02-24T15:45:06;3.10;99.90
39825;DHT22;25503;52.532;13.640;2023-02-24T15:47:51;3.10;99.90
39825;DHT22;25503;52.532;13.640;2023-02-24T15:50:20;3.10;99.90
39825;DHT22;25503;52.532;13.640;2023-02-24T15:52:46;3.00;99.90
39825;DHT22;25503;52.532;13.640;2023-02-24T15:55:16;3.00;99.90
39825;DHT22;25503;52.532;13.640;2023-02-24T15:57:43;3.00;99.90
39825;DHT22;25503;52.532;13.640;2023-02-24T16:00:13;3.00;99.90
39825;DHT22;25503;52.532;13.640;2023-02-24T16:02:40;2.90;99.90
39825;DHT22;25503;52.532;13.640;2023-02-24T16:05:13;2.90;99.90
39825;DHT22;25503;52.532;13.640;2023-02-24T16:07:39;2.90;99.90
39825;DHT22;25503;52.532;13.640;2023-02-24T16:10:06;2.90;99.90
39825;DHT22;25503;52.532;13.640;2023-02-24T16:12:47;2.90;99.90
39825;DHT22;25503;52.532;13.640;2023-02-24T16:15:18;2.90;99.90
39825;DHT22;25503;52.532;13.640;2023-02-24T16:17:44;2.90;99.90
39825;DHT22;25503;52.532;13.640;2023-02-24T16:20:20;2.90;99.90
39825;DHT22;25503;52.532;13.640;2023-02-24T16:22:53;2.90;99.90
39825;DHT22;25503;52.532;13.640;2023-02-24T16:25:18;2.90;99.90
39825;DHT22;25503;52.532;13.640;2023-02-24T16:27:44;2.90;99.90
39825;DHT22;25503;52.532;13.640;2023-02-24T16:30:19;2.90;99.90
39825;DHT22;25503;52.532;13.640;2023-02-24T16:32:45;2.90;99.90
39825;DHT22;25503;52.532;13.640;2023-02-24T16:35:11;2.90;99.90
39825;DHT22;25503;52.532;13.640;2023-02-24T16:37:37;3.00;99.90
39825;DHT22;25503;52.532;13.640;2023-02-24T16:40:17;3.00;99.90
39825;DHT22;25503;52.532;13.640;2023-02-24T16:42:45;3.00;99.90
39825;DHT22;25503;52.532;13.640;2023-02-24T16:45:10;3.00;99.90
39825;DHT22;25503;52.532;13.640;2023-02-24T16:47:36;3.00;99.90
39825;DHT22;25503;52.532;13.640;2023-02-24T16:50:02;3.00;99.90
39825;DHT22;25503;52.532;13.640;2023-02-24T16:52:29;3.10;99.90
39825;DHT22;25503;52.532;13.640;2023-02-24T16:54:55;3.10;99.90
39825;DHT22;25503;52.532;13.640;2023-02-24T16:57:20;3.10;99.90
39825;DHT22;25503;52.532;13.640;2023-02-24T16:59:53;3.10;99.90
39825;DHT22;25503;52.532;13.640;2023-02-24T17:02:23;3.10;99.90
39825;DHT22;25503;52.532;13.640;2023-02-24T17:04:49;3.20;99.90
39825;DHT22;25503;52.532;13.640;2023-02-24T17:07:15;3.20;99.90
39825;DHT22;25503;52.532;13.640;2023-02-24T17:09:43;3.20;99.90
39825;DHT22;25503;52.532;13.640;2023-02-24T17:12:11;3.20;99.90
39825;DHT22;25503;52.532;13.640;2023-02-24T17:14:37;3.20;99.90
39825;DHT22;25503;52.532;13.640;2023-02-24T17:17:03;3.30;99.90
39825;DHT22;25503;52.532;13.640;2023-02-24T17:19:28;3.30;99.90
39825;DHT22;25503;52.532;13.640;2023-02-24T17:21:54;3.30;99.90
39825;DHT22;25503;52.532;13.640;2023-02-24T17:24:19;3.30;99.90
39825;DHT22;25503;52.532;13.640;2023-02-24T17:26:45;3.30;99.90
39825;DHT22;25503;52.532;13.640;2023-02-24T17:29:12;3.30;99.90
39825;DHT22;25503;52.532;13.640;2023-02-24T17:31:39;3.30;99.90
39825;DHT22;25503;52.532;13.640;2023-02-24T17:34:05;3.40;99.90
39825;DHT22;25503;52.532;13.640;2023-02-24T17:36:31;3.40;99.90
39825;DHT22;25503;52.532;13.640;2023-02-24T17:38:56;3.40;99.90
39825;DHT22;25503;52.532;13.640;2023-02-24T17:41:23;3.40;99.90
39825;DHT22;25503;52.532;13.640;2023-02-24T17:43:50;3.40;99.90
39825;DHT22;25503;52.532;13.640;2023-02-24T17:46:16;3.40;99.90
39825;DHT22;25503;52.532;13.640;2023-02-24T17:48:41;3.40;99.90
39825;DHT22;25503;52.532;13.640;2023-02-24T17:51:12;3.40;99.90
39825;DHT22;25503;52.532;13.640;2023-02-24T17:53:38;3.50;99.90
39825;DHT22;25503;52.532;13.640;2023-02-24T17:56:04;3.50;99.90
39825;DHT22;25503;52.532;13.640;2023-02-24T17:58:31;3.50;99.90